createdAt,value
2018-05-15T00:02:00.539Z,100820.70
2018-05-15T00:04:27.926Z,100815.72
2018-05-15T00:06:55.322Z,100820.48
2018-05-15T00:09:22.833Z,100816.72
2018-05-15T00:11:50.290Z,100820.23
2018-05-15T00:14:17.734Z,100820.51
2018-05-15T00:16:45.189Z,100821.83
2018-05-15T00:19:12.572Z,100820.45
2018-05-15T00:21:39.976Z,100827.63
2018-05-15T00:24:07.391Z,100828.06
2018-05-15T00:26:34.823Z,100825.95
2018-05-15T00:29:02.265Z,100828.08
2018-05-15T00:31:29.676Z,100824.34
2018-05-15T00:33:57.123Z,100833.19
2018-05-15T00:36:24.526Z,100829.64
2018-05-15T00:38:51.984Z,100838.54
2018-05-15T00:41:19.441Z,100834.58
2018-05-15T00:43:46.839Z,100838.44
2018-05-15T00:46:14.281Z,100850.19
2018-05-15T00:48:41.663Z,100844.80
2018-05-15T00:51:09.088Z,100846.93
2018-05-15T00:53:36.490Z,100850.63
2018-05-15T00:56:03.991Z,100849.66
2018-05-15T00:58:31.372Z,100845.34
2018-05-15T01:00:58.777Z,100851.17
2018-05-15T01:03:26.968Z,100854.28
2018-05-15T01:05:54.457Z,100857.38
2018-05-15T01:08:21.857Z,100848.94
2018-05-15T01:10:49.252Z,100853.40
2018-05-15T01:13:16.647Z,100853.06
2018-05-15T01:15:44.154Z,100857.59
2018-05-15T01:18:11.573Z,100860.11
2018-05-15T01:20:38.983Z,100857.02
2018-05-15T01:23:06.382Z,100853.36
2018-05-15T01:25:33.783Z,100850.58
2018-05-15T01:28:01.233Z,100855.66
2018-05-15T01:30:28.705Z,100859.49
2018-05-15T01:32:56.106Z,100853.39
2018-05-15T01:35:23.595Z,100849.81
2018-05-15T01:37:51.043Z,100854.53
2018-05-15T01:40:18.429Z,100855.42
2018-05-15T01:42:45.871Z,100861.20
2018-05-15T01:45:13.269Z,100861.30
2018-05-15T01:47:40.662Z,100857.27
2018-05-15T01:50:08.137Z,100855.92
2018-05-15T01:52:35.537Z,100858.59
2018-05-15T01:55:02.934Z,100851.21
2018-05-15T01:57:30.341Z,100854.42
2018-05-15T01:59:57.747Z,100847.17
2018-05-15T02:02:25.233Z,100850.39
2018-05-15T02:04:52.672Z,100855.59
2018-05-15T02:07:20.124Z,100854.01
2018-05-15T02:09:47.590Z,100857.95
2018-05-15T02:12:15.048Z,100855.20
2018-05-15T02:14:42.525Z,100859.12
2018-05-15T02:17:09.961Z,100863.87
2018-05-15T02:19:37.361Z,100851.47
2018-05-15T02:22:04.769Z,100845.17
2018-05-15T02:24:32.232Z,100847.89
2018-05-15T02:26:59.702Z,100853.45
2018-05-15T02:29:27.138Z,100855.69
2018-05-15T02:31:54.537Z,100850.55
2018-05-15T02:34:21.941Z,100850.32
2018-05-15T02:36:49.410Z,100849.23
2018-05-15T02:39:16.866Z,100844.29
2018-05-15T02:41:44.340Z,100844.58
2018-05-15T02:44:11.738Z,100844.39
2018-05-15T02:46:39.146Z,100845.44
2018-05-15T02:49:06.532Z,100842.81
2018-05-15T02:51:33.949Z,100842.73
2018-05-15T02:54:01.337Z,100850.83
2018-05-15T02:56:28.763Z,100849.81
2018-05-15T02:58:56.161Z,100841.23
2018-05-15T03:01:23.567Z,100846.91
2018-05-15T03:03:50.957Z,100845.36
2018-05-15T03:06:18.358Z,100845.36
2018-05-15T03:08:45.838Z,100848.34
2018-05-15T03:11:13.233Z,100842.50
2018-05-15T03:13:40.627Z,100841.30
2018-05-15T03:16:08.021Z,100854.53
2018-05-15T03:18:35.418Z,100850.06
2018-05-15T03:21:02.865Z,100844.42
2018-05-15T03:23:30.276Z,100846.84
2018-05-15T03:25:57.741Z,100840.33
2018-05-15T03:28:25.200Z,100838.95
2018-05-15T03:30:52.597Z,100848.66
2018-05-15T03:33:19.997Z,100852.98
2018-05-15T03:35:47.409Z,100858.09
2018-05-15T03:38:14.837Z,100861.40
2018-05-15T03:40:42.292Z,100867.19
2018-05-15T03:43:09.679Z,100862.50
2018-05-15T03:45:37.094Z,100861.47
2018-05-15T03:48:04.549Z,100861.76
2018-05-15T03:50:31.945Z,100859.86
2018-05-15T03:52:59.370Z,100859.60
2018-05-15T03:55:26.858Z,100857.37
2018-05-15T03:57:54.261Z,100855.22
2018-05-15T04:00:33.557Z,100861.55
2018-05-15T04:03:12.730Z,100867.47
2018-05-15T04:05:51.889Z,100866.61
2018-05-15T04:08:19.354Z,100869.48
2018-05-15T04:10:46.878Z,100864.64
2018-05-15T04:13:14.233Z,100862.54
2018-05-15T04:15:41.650Z,100862.81
2018-05-15T04:18:09.860Z,100860.06
2018-05-15T04:20:37.265Z,100863.70
2018-05-15T04:23:04.672Z,100858.88
2018-05-15T04:25:32.073Z,100857.34
2018-05-15T04:27:59.513Z,100853.66
2018-05-15T04:30:26.889Z,100863.39
2018-05-15T04:32:54.310Z,100865.41
2018-05-15T04:35:21.859Z,100863.23
2018-05-15T04:37:49.239Z,100862.39
2018-05-15T04:40:16.635Z,100854.73
2018-05-15T04:42:44.124Z,100860.92
2018-05-15T04:45:11.553Z,100861.63
2018-05-15T04:47:38.960Z,100861.11
2018-05-15T04:50:06.440Z,100869.69
2018-05-15T04:52:33.838Z,100865.56
2018-05-15T04:55:01.235Z,100869.39
2018-05-15T04:57:28.643Z,100866.86
2018-05-15T04:59:56.033Z,100864.80
2018-05-15T05:02:23.481Z,100873.92
2018-05-15T05:04:50.891Z,100882.20
2018-05-15T05:07:18.277Z,100881.30
2018-05-15T05:09:45.717Z,100890.54
2018-05-15T05:12:13.113Z,100893.39
2018-05-15T05:14:40.510Z,100898.92
2018-05-15T05:17:07.902Z,100897.86
2018-05-15T05:19:35.301Z,100902.21
2018-05-15T05:22:02.813Z,100899.52
2018-05-15T05:24:30.232Z,100897.73
2018-05-15T05:26:57.722Z,100894.20
2018-05-15T05:29:25.136Z,100893.54
2018-05-15T05:31:52.522Z,100891.33
2018-05-15T05:34:19.984Z,100890.94
2018-05-15T05:36:47.369Z,100895.06
2018-05-15T05:39:14.818Z,100895.73
2018-05-15T05:41:42.213Z,100902.24
2018-05-15T05:44:09.727Z,100917.61
2018-05-15T05:46:37.104Z,100911.95
2018-05-15T05:49:04.516Z,100916.19
2018-05-15T05:51:31.980Z,100915.24
2018-05-15T05:53:59.389Z,100916.44
2018-05-15T05:56:26.773Z,100916.11
2018-05-15T05:58:54.197Z,100917.97
2018-05-15T06:01:21.606Z,100925.00
2018-05-15T06:03:49.009Z,100912.52
2018-05-15T06:06:16.520Z,100919.69
2018-05-15T06:08:43.916Z,100917.45
2018-05-15T06:11:11.417Z,100916.57
2018-05-15T06:13:38.825Z,100913.27
2018-05-15T06:16:06.227Z,100919.38
2018-05-15T06:18:33.642Z,100917.16
2018-05-15T06:21:01.113Z,100922.91
2018-05-15T06:23:28.482Z,100925.53
2018-05-15T06:25:55.873Z,100926.00
2018-05-15T06:28:23.281Z,100939.66
2018-05-15T06:30:50.729Z,100931.30
2018-05-15T06:33:18.129Z,100928.02
2018-05-15T06:35:45.531Z,100925.70
2018-05-15T06:38:12.931Z,100932.16
2018-05-15T06:40:40.455Z,100931.98
2018-05-15T06:43:07.858Z,100932.70
2018-05-15T06:45:35.250Z,100927.91
2018-05-15T06:48:02.713Z,100931.73
2018-05-15T06:50:30.135Z,100922.88
2018-05-15T06:52:57.618Z,100929.33
2018-05-15T06:55:25.026Z,100927.85
2018-05-15T06:57:52.429Z,100922.55
2018-05-15T07:00:19.890Z,100925.19
2018-05-15T07:02:47.277Z,100924.47
2018-05-15T07:05:14.685Z,100929.66
2018-05-15T07:07:42.119Z,100929.99
2018-05-15T07:10:09.557Z,100930.55
2018-05-15T07:12:37.026Z,100932.80
2018-05-15T07:15:04.481Z,100929.44
2018-05-15T07:17:31.869Z,100927.12
2018-05-15T07:19:59.280Z,100922.69
2018-05-15T07:22:26.694Z,100924.50
2018-05-15T07:24:54.100Z,100927.53
2018-05-15T07:27:21.505Z,100924.34
2018-05-15T07:29:48.970Z,100921.14
2018-05-15T07:32:16.395Z,100926.48
2018-05-15T07:34:43.905Z,100924.19
2018-05-15T07:37:11.367Z,100923.18
2018-05-15T07:39:38.815Z,100923.77
2018-05-15T07:42:06.210Z,100921.09
2018-05-15T07:44:33.629Z,100923.41
2018-05-15T07:47:01.042Z,100927.74
2018-05-15T07:49:28.535Z,100925.59
2018-05-15T07:51:55.944Z,100928.53
2018-05-15T07:54:23.453Z,100922.31
2018-05-15T07:56:50.926Z,100923.33
2018-05-15T07:59:18.260Z,100922.70
2018-05-15T08:01:45.705Z,100927.72
2018-05-15T08:04:13.177Z,100915.48
2018-05-15T08:06:40.618Z,100910.09
2018-05-15T08:09:08.027Z,100913.48
2018-05-15T08:11:35.513Z,100914.50
2018-05-15T08:14:02.913Z,100916.04
2018-05-15T08:16:30.401Z,100920.77
2018-05-15T08:18:57.852Z,100908.44
2018-05-15T08:21:25.253Z,100912.41
2018-05-15T08:23:52.651Z,100909.23
2018-05-15T08:26:20.032Z,100912.62
2018-05-15T08:28:47.457Z,100915.49
2018-05-15T08:31:14.850Z,100910.34
2018-05-15T08:33:42.326Z,100918.20
2018-05-15T08:36:09.745Z,100923.17
2018-05-15T08:38:37.262Z,100917.33
2018-05-15T08:41:04.658Z,100922.05
2018-05-15T08:43:32.079Z,100921.98
2018-05-15T08:45:59.525Z,100924.06
2018-05-15T08:48:26.926Z,100918.69
2018-05-15T08:50:54.360Z,100927.05
2018-05-15T08:53:21.750Z,100922.61
2018-05-15T08:55:49.177Z,100917.58
2018-05-15T08:58:16.588Z,100927.40
2018-05-15T09:00:43.999Z,100917.08
2018-05-15T09:03:11.381Z,100917.70
2018-05-15T09:05:38.786Z,100916.65
2018-05-15T09:08:06.228Z,100916.78
2018-05-15T09:10:33.887Z,100918.22
2018-05-15T09:13:01.353Z,100917.19
2018-05-15T09:15:28.750Z,100912.66
2018-05-15T09:17:56.240Z,100919.67
2018-05-15T09:20:23.638Z,100927.95
2018-05-15T09:22:51.053Z,100919.61
2018-05-15T09:25:19.494Z,100907.45
2018-05-15T09:27:46.887Z,100908.81
2018-05-15T09:30:14.373Z,100911.60
2018-05-15T09:32:41.813Z,100914.28
2018-05-15T09:35:09.215Z,100913.12
2018-05-15T09:37:37.557Z,100906.89
2018-05-15T09:40:04.961Z,100905.48
2018-05-15T09:42:32.461Z,100907.86
2018-05-15T09:44:59.923Z,100911.67
2018-05-15T09:47:27.315Z,100904.73
2018-05-15T09:49:54.709Z,100910.75
2018-05-15T09:52:22.143Z,100905.91
2018-05-15T09:54:49.521Z,100909.17
2018-05-15T09:57:16.940Z,100907.24
2018-05-15T09:59:44.373Z,100910.59
2018-05-15T10:02:11.789Z,100903.09
2018-05-15T10:04:39.280Z,100903.62
2018-05-15T10:07:06.741Z,100907.97
2018-05-15T10:09:34.231Z,100898.38
2018-05-15T10:12:01.708Z,100905.44
2018-05-15T10:14:29.125Z,100899.75
2018-05-15T10:16:56.505Z,100896.27
2018-05-15T10:19:23.905Z,100894.09
2018-05-15T10:21:51.288Z,100888.88
2018-05-15T10:24:18.781Z,100881.58
2018-05-15T10:26:46.197Z,100884.03
2018-05-15T10:29:13.625Z,100893.28
2018-05-15T10:31:41.021Z,100887.82
2018-05-15T10:34:08.409Z,100880.42
2018-05-15T10:36:35.926Z,100864.71
2018-05-15T10:39:03.315Z,100873.16
2018-05-15T10:41:30.706Z,100870.25
2018-05-15T10:43:58.152Z,100865.84
2018-05-15T10:46:25.535Z,100867.97
2018-05-15T10:48:52.981Z,100872.00
2018-05-15T10:51:20.552Z,100875.16
2018-05-15T10:53:47.952Z,100873.65
2018-05-15T10:56:15.351Z,100864.58
2018-05-15T10:58:42.800Z,100863.86
2018-05-15T11:01:10.278Z,100860.97
2018-05-15T11:03:37.717Z,100853.34
2018-05-15T11:06:05.205Z,100849.55
2018-05-15T11:08:32.531Z,100844.53
2018-05-15T11:10:59.924Z,100846.76
2018-05-15T11:13:27.333Z,100846.41
2018-05-15T11:15:54.729Z,100851.96
2018-05-15T11:18:47.882Z,100850.02
2018-05-15T11:21:27.193Z,100846.34
2018-05-15T11:27:01.358Z,100846.22
2018-05-15T11:29:28.809Z,100847.05
2018-05-15T11:31:56.209Z,100835.81
2018-05-15T11:34:23.622Z,100835.47
2018-05-15T11:36:51.013Z,100842.42
2018-05-15T11:39:18.424Z,100832.11
2018-05-15T11:41:45.850Z,100834.64
2018-05-15T11:44:13.257Z,100832.23
2018-05-15T11:46:40.700Z,100815.34
2018-05-15T11:49:08.799Z,100838.19
2018-05-15T11:51:36.534Z,100828.35
2018-05-15T11:54:03.129Z,100824.79
2018-05-15T11:56:30.547Z,100829.00
2018-05-15T11:58:57.933Z,100822.06
2018-05-15T12:01:25.378Z,100818.92
2018-05-15T12:03:53.014Z,100821.23
2018-05-15T12:06:20.306Z,100823.71
2018-05-15T12:08:47.711Z,100818.09
2018-05-15T12:11:15.097Z,100818.22
2018-05-15T12:13:42.497Z,100810.63
2018-05-15T12:16:09.940Z,100805.94
2018-05-15T12:18:37.385Z,100812.75
2018-05-15T12:21:04.828Z,100807.67
2018-05-15T12:23:32.217Z,100804.22
2018-05-15T12:25:59.637Z,100797.77
2018-05-15T12:28:27.070Z,100793.98
2018-05-15T12:30:54.499Z,100805.36
2018-05-15T12:33:22.156Z,100795.09
2018-05-15T12:35:49.649Z,100801.33
2018-05-15T12:40:57.144Z,100786.11
2018-05-15T12:43:24.542Z,100790.81
2018-05-15T12:45:52.025Z,100790.59
2018-05-15T12:48:19.449Z,100792.83
2018-05-15T12:50:46.836Z,100790.45
2018-05-15T12:53:14.305Z,100792.56
2018-05-15T12:55:41.705Z,100787.34
2018-05-15T12:58:09.095Z,100784.27
2018-05-15T13:00:36.523Z,100782.89
2018-05-15T13:03:03.907Z,100782.66
2018-05-15T13:05:31.341Z,100781.12
2018-05-15T13:07:58.757Z,100780.37
2018-05-15T13:10:26.168Z,100779.45
2018-05-15T13:12:53.597Z,100781.41
2018-05-15T13:15:21.106Z,100769.94
2018-05-15T13:17:48.498Z,100762.63
2018-05-15T13:20:15.897Z,100756.38
2018-05-15T13:22:43.385Z,100757.20
2018-05-15T13:25:10.880Z,100749.61
2018-05-15T13:27:38.313Z,100749.97
2018-05-15T13:30:05.736Z,100749.25
2018-05-15T13:32:33.214Z,100747.78
2018-05-15T13:35:00.678Z,100745.08
2018-05-15T13:37:28.069Z,100747.45
2018-05-15T13:39:55.468Z,100748.91
2018-05-15T13:42:22.881Z,100748.87
2018-05-15T13:44:50.294Z,100736.38
2018-05-15T13:47:17.764Z,100738.33
2018-05-15T13:49:45.235Z,100739.66
2018-05-15T13:52:12.638Z,100734.12
2018-05-15T13:54:40.031Z,100730.48
2018-05-15T13:57:07.448Z,100729.80
2018-05-15T13:59:34.964Z,100725.27
2018-05-15T14:02:02.395Z,100718.82
2018-05-15T14:04:30.725Z,100720.25
2018-05-15T14:06:58.226Z,100710.50
2018-05-15T14:09:25.703Z,100708.48
2018-05-15T14:11:53.103Z,100700.89
2018-05-15T14:14:20.614Z,100698.17
2018-05-15T14:16:48.010Z,100697.50
2018-05-15T14:19:15.498Z,100696.77
2018-05-15T14:21:42.802Z,100688.12
2018-05-15T14:24:10.210Z,100684.46
2018-05-15T14:26:37.633Z,100693.91
2018-05-15T14:29:05.030Z,100692.39
2018-05-15T14:31:32.499Z,100690.58
2018-05-15T14:33:59.949Z,100684.59
2018-05-15T14:36:27.409Z,100674.73
2018-05-15T14:38:54.798Z,100682.00
2018-05-15T14:41:34.101Z,100676.63
2018-05-15T14:44:01.497Z,100673.41
2018-05-15T14:46:28.899Z,100667.09
2018-05-15T14:48:56.293Z,100665.44
2018-05-15T14:51:30.590Z,100666.03
2018-05-15T14:53:58.065Z,100667.70
2018-05-15T14:56:25.500Z,100665.59
2018-05-15T14:58:52.964Z,100667.14
2018-05-15T15:01:20.426Z,100658.32
2018-05-15T15:03:47.825Z,100667.17
2018-05-15T15:06:15.232Z,100664.48
2018-05-15T15:08:42.679Z,100661.69
2018-05-15T15:11:10.054Z,100659.94
2018-05-15T15:13:37.458Z,100663.67
2018-05-15T15:16:04.850Z,100670.53
2018-05-15T15:18:32.248Z,100660.64
2018-05-15T15:20:59.645Z,100664.29
2018-05-15T15:23:27.053Z,100659.00
2018-05-15T15:25:54.550Z,100662.98
2018-05-15T15:28:21.993Z,100660.23
2018-05-15T15:30:49.469Z,100655.09
2018-05-15T15:33:16.883Z,100656.99
2018-05-15T15:35:44.286Z,100660.89
2018-05-15T15:38:11.685Z,100652.25
2018-05-15T15:40:39.094Z,100652.66
2018-05-15T15:43:06.561Z,100647.67
2018-05-15T15:45:34.929Z,100638.22
2018-05-15T15:48:02.322Z,100624.56
2018-05-15T15:50:29.817Z,100633.20
2018-05-15T15:52:57.248Z,100630.75
2018-05-15T15:55:24.645Z,100624.57
2018-05-15T15:57:52.063Z,100627.09
2018-05-15T16:00:19.550Z,100617.89
2018-05-15T16:02:46.989Z,100619.95
2018-05-15T16:05:14.377Z,100624.98
2018-05-15T16:07:41.769Z,100619.58
2018-05-15T16:10:09.364Z,100615.96
2018-05-15T16:12:36.625Z,100615.63
2018-05-15T16:15:04.026Z,100615.55
2018-05-15T16:17:31.517Z,100612.21
2018-05-15T16:19:58.913Z,100610.73
2018-05-15T16:22:26.319Z,100612.99
2018-05-15T16:24:53.723Z,100606.68
2018-05-15T16:27:21.114Z,100609.89
2018-05-15T16:29:48.541Z,100608.87
2018-05-15T16:32:15.947Z,100607.81
2018-05-15T16:34:43.397Z,100593.77
2018-05-15T16:37:10.781Z,100596.54
2018-05-15T16:39:38.293Z,100597.84
2018-05-15T16:42:05.689Z,100600.03
2018-05-15T16:44:33.637Z,100593.02
2018-05-15T16:47:01.107Z,100597.40
2018-05-15T16:49:28.544Z,100604.64
2018-05-15T16:51:55.937Z,100609.94
2018-05-15T16:54:23.466Z,100612.59
2018-05-15T16:56:50.877Z,100618.36
2018-05-15T16:59:18.363Z,100620.41
2018-05-15T17:01:46.629Z,100610.36
2018-05-15T17:04:14.025Z,100613.61
2018-05-15T17:06:41.467Z,100611.19
2018-05-15T17:09:08.853Z,100611.34
2018-05-15T17:11:36.683Z,100614.07
2018-05-15T17:14:04.109Z,100621.66
2018-05-15T17:16:31.504Z,100614.53
2018-05-15T17:18:58.957Z,100609.19
2018-05-15T17:21:26.449Z,100612.83
2018-05-15T17:23:53.905Z,100621.44
2018-05-15T17:26:21.367Z,100615.08
2018-05-15T17:28:48.765Z,100619.04
2018-05-15T17:31:16.220Z,100628.62
2018-05-15T17:33:43.566Z,100613.57
2018-05-15T17:36:10.966Z,100622.52
2018-05-15T17:38:38.377Z,100630.73
2018-05-15T17:41:05.789Z,100624.29
2018-05-15T17:43:33.197Z,100630.67
2018-05-15T17:46:00.587Z,100627.34
2018-05-15T17:48:28.052Z,100637.33
2018-05-15T17:50:55.433Z,100640.45
2018-05-15T17:53:22.842Z,100642.77
2018-05-15T17:55:50.301Z,100644.47
2018-05-15T17:58:17.714Z,100634.00
2018-05-15T18:00:45.222Z,100643.17
2018-05-15T18:03:12.621Z,100653.71
2018-05-15T18:05:40.481Z,100644.90
2018-05-15T18:08:07.898Z,100650.19
2018-05-15T18:10:35.309Z,100647.91
2018-05-15T18:13:02.826Z,100649.52
2018-05-15T18:15:30.218Z,100641.03
2018-05-15T18:17:57.725Z,100651.91
2018-05-15T18:20:25.165Z,100651.23
2018-05-15T18:22:52.661Z,100652.59
2018-05-15T18:25:20.049Z,100646.36
2018-05-15T18:27:47.437Z,100645.10
2018-05-15T18:30:14.850Z,100644.17
2018-05-15T18:32:42.281Z,100643.78
2018-05-15T18:35:09.663Z,100642.08
2018-05-15T18:37:37.049Z,100632.84
2018-05-15T18:40:04.465Z,100642.85
2018-05-15T18:42:32.015Z,100643.01
2018-05-15T18:44:59.455Z,100641.80
2018-05-15T18:47:26.892Z,100639.61
2018-05-15T18:49:54.294Z,100645.92
2018-05-15T18:52:21.762Z,100644.81
2018-05-15T18:54:49.173Z,100643.47
2018-05-15T18:57:16.647Z,100646.84
2018-05-15T18:59:44.092Z,100645.66
2018-05-15T19:02:11.483Z,100649.30
2018-05-15T19:04:38.965Z,100655.51
2018-05-15T19:07:06.374Z,100656.79
2018-05-15T19:09:33.773Z,100652.52
2018-05-15T19:12:01.157Z,100663.61
2018-05-15T19:14:28.560Z,100662.44
2018-05-15T19:16:56.028Z,100669.62
2018-05-15T19:19:23.521Z,100671.75
2018-05-15T19:21:50.847Z,100673.59
2018-05-15T19:24:18.245Z,100679.47
2018-05-15T19:26:45.691Z,100679.72
2018-05-15T19:29:13.053Z,100683.18
2018-05-15T19:31:40.449Z,100686.47
2018-05-15T19:34:13.649Z,100688.95
2018-05-15T19:36:46.505Z,100689.19
2018-05-15T19:39:13.907Z,100688.99
2018-05-15T19:41:41.361Z,100687.19
2018-05-15T19:44:08.780Z,100689.96
2018-05-15T19:46:36.183Z,100688.99
2018-05-15T19:49:03.570Z,100683.48
2018-05-15T19:51:30.974Z,100687.06
2018-05-15T19:53:58.442Z,100692.73
2018-05-15T19:56:25.858Z,100698.34
2018-05-15T19:58:54.090Z,100696.83
2018-05-15T20:01:21.529Z,100699.63
2018-05-15T20:03:48.985Z,100693.72
2018-05-15T20:06:16.440Z,100689.24
2018-05-15T20:08:43.833Z,100695.20
2018-05-15T20:11:11.257Z,100695.84
2018-05-15T20:13:38.712Z,100715.23
2018-05-15T20:16:06.228Z,100735.44
2018-05-15T20:18:33.641Z,100734.78
2018-05-15T20:21:01.077Z,100728.74
2018-05-15T20:23:28.469Z,100724.44
2018-05-15T20:25:55.884Z,100715.38
2018-05-15T20:28:23.281Z,100719.71
2018-05-15T20:30:50.684Z,100715.67
2018-05-15T20:33:18.100Z,100711.34
2018-05-15T20:35:45.517Z,100707.38
2018-05-15T20:38:12.910Z,100720.86
2018-05-15T20:40:40.313Z,100722.52
2018-05-15T20:43:07.785Z,100717.80
2018-05-15T20:45:35.200Z,100710.44
2018-05-15T20:48:02.610Z,100721.06
2018-05-15T20:50:30.033Z,100719.45
2018-05-15T20:52:57.513Z,100713.91
2018-05-15T20:55:24.969Z,100712.75
2018-05-15T20:57:52.371Z,100700.14
2018-05-15T21:00:19.777Z,100707.78
2018-05-15T21:02:48.061Z,100705.63
2018-05-15T21:05:15.483Z,100711.05
2018-05-15T21:07:42.886Z,100711.03
2018-05-15T21:10:10.325Z,100706.88
2018-05-15T21:12:37.898Z,100706.98
2018-05-15T21:15:05.340Z,100719.75
2018-05-15T21:17:32.700Z,100718.78
2018-05-15T21:20:00.111Z,100718.59
2018-05-15T21:22:27.509Z,100720.53
2018-05-15T21:24:55.003Z,100721.31
2018-05-15T21:27:22.424Z,100719.31
2018-05-15T21:29:49.838Z,100721.20
2018-05-15T21:32:17.228Z,100719.63
2018-05-15T21:34:44.625Z,100722.55
2018-05-15T21:37:12.039Z,100716.50
2018-05-15T21:39:39.444Z,100720.92
2018-05-15T21:42:06.845Z,100717.38
2018-05-15T21:44:34.269Z,100712.73
2018-05-15T21:47:01.674Z,100708.47
2018-05-15T21:49:29.133Z,100707.39
2018-05-15T21:51:56.516Z,100706.30
2018-05-15T21:54:23.920Z,100704.56
2018-05-15T21:56:51.314Z,100700.32
2018-05-15T21:59:18.707Z,100698.89
2018-05-15T22:01:46.113Z,100695.28
2018-05-15T22:04:13.505Z,100684.66
2018-05-15T22:06:40.905Z,100686.48
2018-05-15T22:09:08.302Z,100682.22
2018-05-15T22:11:47.430Z,100683.77
2018-05-15T22:14:26.768Z,100677.95
2018-05-15T22:17:06.065Z,100676.57
2018-05-15T22:19:45.429Z,100684.38
2018-05-15T22:22:15.048Z,100682.02
2018-05-15T22:24:42.481Z,100678.77
2018-05-15T22:27:09.889Z,100678.17
2018-05-15T22:29:37.278Z,100685.73
2018-05-15T22:32:04.768Z,100686.45
2018-05-15T22:34:32.169Z,100685.89
2018-05-15T22:36:59.677Z,100679.27
2018-05-15T22:39:27.073Z,100681.67
2018-05-15T22:41:54.492Z,100679.39
2018-05-15T22:44:21.904Z,100676.50
2018-05-15T22:46:49.301Z,100669.83
2018-05-15T22:49:16.702Z,100674.39
2018-05-15T22:51:44.101Z,100668.36
2018-05-15T22:54:11.515Z,100671.04
2018-05-15T22:56:38.913Z,100682.61
2018-05-15T22:59:06.313Z,100686.86
2018-05-15T23:01:33.773Z,100677.92
2018-05-15T23:04:01.171Z,100681.09
2018-05-15T23:06:28.621Z,100679.47
2018-05-15T23:08:56.043Z,100678.54
2018-05-15T23:11:23.441Z,100676.86
2018-05-15T23:13:50.872Z,100679.73
2018-05-15T23:16:18.295Z,100680.14
2018-05-15T23:18:45.698Z,100686.78
2018-05-15T23:21:13.122Z,100694.05
2018-05-15T23:23:40.577Z,100694.76
2018-05-15T23:26:07.980Z,100696.53
2018-05-15T23:28:35.469Z,100693.06
2018-05-15T23:31:02.892Z,100682.30
2018-05-15T23:33:30.401Z,100680.36
2018-05-15T23:35:57.817Z,100677.33
2018-05-15T23:38:25.213Z,100673.30
2018-05-15T23:40:52.644Z,100677.29
2018-05-15T23:43:20.121Z,100679.34
2018-05-15T23:45:47.567Z,100681.52
2018-05-15T23:48:15.014Z,100681.22
2018-05-15T23:50:42.413Z,100669.06
2018-05-15T23:53:09.843Z,100674.89
2018-05-15T23:55:37.285Z,100672.69
2018-05-15T23:58:04.741Z,100672.81
